Terminal Aerodrome Forecast
Issued by NWS San Angelo, TX

Home | Current Version | Previous Version | Text Only | Print | Product List | Glossary On
Versions: 1 2 3 4 5 6 7 8 9 10 11 12 13 14 15 16 17 18 19
394
FTUS44 KSJT 201210 AAA
TAFABI
TAF AMD
KABI 201210Z 2012/2112 25012G18KT P6SM SKC WS020/27045KT
     FM201800 25020G30KT P6SM SCT250
     FM210000 22010KT P6SM SCT250=

USA.gov is the U.S. government's official web portal to all federal, state and local government web resources and services.